sensor_id;sensor_type;location;lat;lon;timestamp;P1;durP1;ratioP1;P2;durP2;ratioP2
16025;SDS011;8117;52.488;13.460;2022-08-21T00:00:19;2.88;;;1.70;;
16025;SDS011;8117;52.488;13.460;2022-08-21T00:02:49;1.88;;;1.50;;
16025;SDS011;8117;52.488;13.460;2022-08-21T00:05:17;2.30;;;1.77;;
16025;SDS011;8117;52.488;13.460;2022-08-21T00:07:44;3.28;;;1.85;;
16025;SDS011;8117;52.488;13.460;2022-08-21T00:10:11;1.65;;;1.52;;
16025;SDS011;8117;52.488;13.460;2022-08-21T00:12:39;2.03;;;1.48;;
16025;SDS011;8117;52.488;13.460;2022-08-21T00:15:07;2.53;;;2.28;;
16025;SDS011;8117;52.488;13.460;2022-08-21T00:17:37;4.63;;;1.52;;
16025;SDS011;8117;52.488;13.460;2022-08-21T00:20:04;1.98;;;1.65;;
16025;SDS011;8117;52.488;13.460;2022-08-21T00:22:32;2.08;;;1.73;;
16025;SDS011;8117;52.488;13.460;2022-08-21T00:24:58;1.55;;;1.23;;
16025;SDS011;8117;52.488;13.460;2022-08-21T00:27:25;2.37;;;2.00;;
16025;SDS011;8117;52.488;13.460;2022-08-21T00:29:53;3.78;;;2.03;;
16025;SDS011;8117;52.488;13.460;2022-08-21T00:32:20;1.85;;;1.42;;
16025;SDS011;8117;52.488;13.460;2022-08-21T00:34:47;1.48;;;1.35;;
16025;SDS011;8117;52.488;13.460;2022-08-21T00:37:14;1.92;;;1.60;;
16025;SDS011;8117;52.488;13.460;2022-08-21T00:39:40;1.73;;;1.60;;
16025;SDS011;8117;52.488;13.460;2022-08-21T00:42:07;3.60;;;2.38;;
16025;SDS011;8117;52.488;13.460;2022-08-21T00:44:34;1.63;;;1.50;;
16025;SDS011;8117;52.488;13.460;2022-08-21T00:47:02;2.80;;;1.65;;
16025;SDS011;8117;52.488;13.460;2022-08-21T00:49:29;1.35;;;1.20;;
16025;SDS011;8117;52.488;13.460;2022-08-21T00:51:56;1.63;;;1.50;;
16025;SDS011;8117;52.488;13.460;2022-08-21T00:54:25;1.73;;;1.45;;
16025;SDS011;8117;52.488;13.460;2022-08-21T00:56:54;2.03;;;1.75;;
16025;SDS011;8117;52.488;13.460;2022-08-21T00:59:23;2.05;;;1.73;;
16025;SDS011;8117;52.488;13.460;2022-08-21T01:01:51;1.85;;;1.58;;
16025;SDS011;8117;52.488;13.460;2022-08-21T01:04:20;2.47;;;1.83;;
16025;SDS011;8117;52.488;13.460;2022-08-21T01:06:47;3.25;;;2.10;;
16025;SDS011;8117;52.488;13.460;2022-08-21T01:09:13;1.70;;;1.60;;
16025;SDS011;8117;52.488;13.460;2022-08-21T01:11:40;3.10;;;1.90;;
16025;SDS011;8117;52.488;13.460;2022-08-21T01:14:08;4.53;;;1.58;;
16025;SDS011;8117;52.488;13.460;2022-08-21T01:16:37;2.78;;;1.63;;
16025;SDS011;8117;52.488;13.460;2022-08-21T01:19:04;3.08;;;1.83;;
16025;SDS011;8117;52.488;13.460;2022-08-21T01:21:33;2.85;;;1.70;;
16025;SDS011;8117;52.488;13.460;2022-08-21T01:23:59;2.22;;;1.92;;
16025;SDS011;8117;52.488;13.460;2022-08-21T01:26:27;1.73;;;1.63;;
16025;SDS011;8117;52.488;13.460;2022-08-21T01:28:57;1.77;;;1.15;;
16025;SDS011;8117;52.488;13.460;2022-08-21T01:31:26;1.42;;;1.33;;
16025;SDS011;8117;52.488;13.460;2022-08-21T01:33:54;1.88;;;1.52;;
16025;SDS011;8117;52.488;13.460;2022-08-21T01:36:21;3.67;;;1.60;;
16025;SDS011;8117;52.488;13.460;2022-08-21T01:38:49;4.20;;;1.95;;
16025;SDS011;8117;52.488;13.460;2022-08-21T01:41:16;2.00;;;1.30;;
16025;SDS011;8117;52.488;13.460;2022-08-21T01:43:43;5.15;;;2.00;;
16025;SDS011;8117;52.488;13.460;2022-08-21T01:46:10;6.53;;;1.95;;
16025;SDS011;8117;52.488;13.460;2022-08-21T01:48:41;3.03;;;1.50;;
16025;SDS011;8117;52.488;13.460;2022-08-21T01:51:08;1.55;;;1.20;;
16025;SDS011;8117;52.488;13.460;2022-08-21T01:53:37;2.67;;;1.42;;
16025;SDS011;8117;52.488;13.460;2022-08-21T01:56:06;1.23;;;1.13;;
16025;SDS011;8117;52.488;13.460;2022-08-21T01:58:34;1.33;;;1.17;;
16025;SDS011;8117;52.488;13.460;2022-08-21T02:01:02;1.58;;;1.25;;
16025;SDS011;8117;52.488;13.460;2022-08-21T02:03:29;1.77;;;1.48;;
16025;SDS011;8117;52.488;13.460;2022-08-21T02:05:56;1.90;;;1.73;;
16025;SDS011;8117;52.488;13.460;2022-08-21T02:08:23;1.88;;;1.70;;
16025;SDS011;8117;52.488;13.460;2022-08-21T02:10:49;1.60;;;1.50;;
16025;SDS011;8117;52.488;13.460;2022-08-21T02:13:18;1.17;;;1.10;;
16025;SDS011;8117;52.488;13.460;2022-08-21T02:15:45;1.35;;;1.10;;
16025;SDS011;8117;52.488;13.460;2022-08-21T02:18:11;1.60;;;1.50;;
16025;SDS011;8117;52.488;13.460;2022-08-21T02:20:39;1.80;;;1.40;;
16025;SDS011;8117;52.488;13.460;2022-08-21T02:23:09;1.67;;;1.55;;
16025;SDS011;8117;52.488;13.460;2022-08-21T02:25:36;1.40;;;1.30;;
16025;SDS011;8117;52.488;13.460;2022-08-21T02:28:04;2.10;;;1.40;;
16025;SDS011;8117;52.488;13.460;2022-08-21T02:30:34;1.33;;;1.23;;
16025;SDS011;8117;52.488;13.460;2022-08-21T02:33:03;2.67;;;1.30;;
16025;SDS011;8117;52.488;13.460;2022-08-21T02:35:32;1.40;;;1.03;;
16025;SDS011;8117;52.488;13.460;2022-08-21T02:38:00;1.77;;;1.40;;
16025;SDS011;8117;52.488;13.460;2022-08-21T02:40:29;1.70;;;1.60;;
16025;SDS011;8117;52.488;13.460;2022-08-21T02:42:58;2.10;;;1.30;;
16025;SDS011;8117;52.488;13.460;2022-08-21T02:45:26;1.17;;;1.17;;
16025;SDS011;8117;52.488;13.460;2022-08-21T02:47:56;1.77;;;1.63;;
16025;SDS011;8117;52.488;13.460;2022-08-21T02:50:24;2.85;;;1.13;;
16025;SDS011;8117;52.488;13.460;2022-08-21T02:52:52;1.42;;;1.10;;
16025;SDS011;8117;52.488;13.460;2022-08-21T02:55:18;2.40;;;1.63;;
16025;SDS011;8117;52.488;13.460;2022-08-21T02:57:46;1.35;;;1.25;;
16025;SDS011;8117;52.488;13.460;2022-08-21T03:00:13;3.97;;;1.73;;
16025;SDS011;8117;52.488;13.460;2022-08-21T03:02:41;1.35;;;1.25;;
16025;SDS011;8117;52.488;13.460;2022-08-21T03:05:10;3.15;;;1.75;;
16025;SDS011;8117;52.488;13.460;2022-08-21T03:07:37;1.60;;;1.40;;
16025;SDS011;8117;52.488;13.460;2022-08-21T03:10:05;1.30;;;1.20;;
16025;SDS011;8117;52.488;13.460;2022-08-21T03:12:32;2.23;;;1.10;;
16025;SDS011;8117;52.488;13.460;2022-08-21T03:15:00;1.73;;;1.40;;
16025;SDS011;8117;52.488;13.460;2022-08-21T03:17:27;1.57;;;1.43;;
16025;SDS011;8117;52.488;13.460;2022-08-21T03:19:54;1.60;;;1.20;;
16025;SDS011;8117;52.488;13.460;2022-08-21T03:22:22;1.10;;;1.00;;
16025;SDS011;8117;52.488;13.460;2022-08-21T03:24:49;0.97;;;0.93;;
16025;SDS011;8117;52.488;13.460;2022-08-21T03:27:16;1.42;;;1.13;;
16025;SDS011;8117;52.488;13.460;2022-08-21T03:29:43;1.23;;;1.13;;
16025;SDS011;8117;52.488;13.460;2022-08-21T03:32:09;1.10;;;1.05;;
16025;SDS011;8117;52.488;13.460;2022-08-21T03:34:36;1.70;;;1.10;;
16025;SDS011;8117;52.488;13.460;2022-08-21T03:37:03;2.47;;;1.30;;
16025;SDS011;8117;52.488;13.460;2022-08-21T03:39:31;1.70;;;1.50;;
16025;SDS011;8117;52.488;13.460;2022-08-21T03:41:58;1.40;;;1.30;;
16025;SDS011;8117;52.488;13.460;2022-08-21T03:44:25;1.63;;;1.17;;
16025;SDS011;8117;52.488;13.460;2022-08-21T03:46:53;1.75;;;0.93;;
16025;SDS011;8117;52.488;13.460;2022-08-21T03:49:19;0.90;;;0.90;;
16025;SDS011;8117;52.488;13.460;2022-08-21T03:51:46;1.42;;;1.10;;
16025;SDS011;8117;52.488;13.460;2022-08-21T03:54:13;1.40;;;1.27;;
16025;SDS011;8117;52.488;13.460;2022-08-21T03:56:41;1.33;;;1.10;;
16025;SDS011;8117;52.488;13.460;2022-08-21T03:59:08;1.25;;;1.15;;
16025;SDS011;8117;52.488;13.460;2022-08-21T04:01:35;0.70;;;0.70;;
16025;SDS011;8117;52.488;13.460;2022-08-21T04:04:02;1.47;;;1.37;;
16025;SDS011;8117;52.488;13.460;2022-08-21T04:06:29;1.00;;;0.70;;
16025;SDS011;8117;52.488;13.460;2022-08-21T04:08:56;0.83;;;0.83;;
16025;SDS011;8117;52.488;13.460;2022-08-21T04:11:22;1.70;;;1.27;;
16025;SDS011;8117;52.488;13.460;2022-08-21T04:13:50;2.53;;;1.10;;
16025;SDS011;8117;52.488;13.460;2022-08-21T04:16:16;1.47;;;1.07;;
16025;SDS011;8117;52.488;13.460;2022-08-21T04:18:45;3.03;;;1.37;;
16025;SDS011;8117;52.488;13.460;2022-08-21T04:21:12;1.03;;;1.00;;
16025;SDS011;8117;52.488;13.460;2022-08-21T04:23:39;2.10;;;1.40;;
16025;SDS011;8117;52.488;13.460;2022-08-21T04:26:05;1.03;;;0.93;;
16025;SDS011;8117;52.488;13.460;2022-08-21T04:28:32;2.30;;;1.57;;
16025;SDS011;8117;52.488;13.460;2022-08-21T04:31:00;1.03;;;0.93;;
16025;SDS011;8117;52.488;13.460;2022-08-21T04:33:27;3.30;;;1.55;;
16025;SDS011;8117;52.488;13.460;2022-08-21T04:35:54;1.00;;;0.90;;
16025;SDS011;8117;52.488;13.460;2022-08-21T04:38:20;7.43;;;1.13;;
16025;SDS011;8117;52.488;13.460;2022-08-21T04:40:47;1.92;;;1.08;;
16025;SDS011;8117;52.488;13.460;2022-08-21T04:43:14;1.10;;;1.00;;
16025;SDS011;8117;52.488;13.460;2022-08-21T04:45:41;2.27;;;1.10;;
16025;SDS011;8117;52.488;13.460;2022-08-21T04:48:11;0.85;;;0.85;;
16025;SDS011;8117;52.488;13.460;2022-08-21T04:50:39;0.83;;;0.83;;
16025;SDS011;8117;52.488;13.460;2022-08-21T04:53:10;0.80;;;0.80;;
16025;SDS011;8117;52.488;13.460;2022-08-21T04:55:40;2.27;;;1.20;;
16025;SDS011;8117;52.488;13.460;2022-08-21T04:58:07;1.43;;;1.10;;
16025;SDS011;8117;52.488;13.460;2022-08-21T05:00:35;1.10;;;0.90;;
16025;SDS011;8117;52.488;13.460;2022-08-21T05:03:03;1.73;;;0.80;;
16025;SDS011;8117;52.488;13.460;2022-08-21T05:05:33;0.73;;;0.70;;
16025;SDS011;8117;52.488;13.460;2022-08-21T05:08:01;1.73;;;1.00;;
16025;SDS011;8117;52.488;13.460;2022-08-21T05:10:28;0.70;;;0.70;;
16025;SDS011;8117;52.488;13.460;2022-08-21T05:12:56;0.80;;;0.80;;
16025;SDS011;8117;52.488;13.460;2022-08-21T05:15:23;1.20;;;1.03;;
16025;SDS011;8117;52.488;13.460;2022-08-21T05:17:50;0.83;;;0.83;;
16025;SDS011;8117;52.488;13.460;2022-08-21T05:20:16;0.70;;;0.70;;
16025;SDS011;8117;52.488;13.460;2022-08-21T05:22:46;0.63;;;0.63;;
16025;SDS011;8117;52.488;13.460;2022-08-21T05:25:12;1.97;;;0.70;;
16025;SDS011;8117;52.488;13.460;2022-08-21T05:27:39;0.50;;;0.50;;
16025;SDS011;8117;52.488;13.460;2022-08-21T05:30:06;0.82;;;0.82;;
16025;SDS011;8117;52.488;13.460;2022-08-21T05:32:33;1.03;;;0.93;;
16025;SDS011;8117;52.488;13.460;2022-08-21T05:35:00;1.17;;;1.07;;
16025;SDS011;8117;52.488;13.460;2022-08-21T05:37:27;3.37;;;1.13;;
16025;SDS011;8117;52.488;13.460;2022-08-21T05:39:55;0.70;;;0.70;;
16025;SDS011;8117;52.488;13.460;2022-08-21T05:42:21;0.77;;;0.77;;
16025;SDS011;8117;52.488;13.460;2022-08-21T05:44:48;1.57;;;1.10;;
16025;SDS011;8117;52.488;13.460;2022-08-21T05:47:14;1.43;;;1.33;;
16025;SDS011;8117;52.488;13.460;2022-08-21T05:49:41;2.60;;;1.00;;
16025;SDS011;8117;52.488;13.460;2022-08-21T05:52:08;1.50;;;1.00;;
16025;SDS011;8117;52.488;13.460;2022-08-21T05:54:35;0.93;;;0.70;;
16025;SDS011;8117;52.488;13.460;2022-08-21T05:57:04;2.10;;;1.13;;
16025;SDS011;8117;52.488;13.460;2022-08-21T05:59:30;1.23;;;0.90;;
16025;SDS011;8117;52.488;13.460;2022-08-21T06:01:57;2.57;;;1.30;;
16025;SDS011;8117;52.488;13.460;2022-08-21T06:04:23;0.90;;;0.90;;
16025;SDS011;8117;52.488;13.460;2022-08-21T06:06:50;1.40;;;0.90;;
16025;SDS011;8117;52.488;13.460;2022-08-21T06:09:17;3.53;;;1.10;;
16025;SDS011;8117;52.488;13.460;2022-08-21T06:11:43;1.07;;;0.90;;
16025;SDS011;8117;52.488;13.460;2022-08-21T06:14:14;1.10;;;0.73;;
16025;SDS011;8117;52.488;13.460;2022-08-21T06:16:41;1.73;;;0.90;;
16025;SDS011;8117;52.488;13.460;2022-08-21T06:19:08;0.70;;;0.70;;
16025;SDS011;8117;52.488;13.460;2022-08-21T06:21:34;6.23;;;0.70;;
16025;SDS011;8117;52.488;13.460;2022-08-21T06:24:04;1.50;;;0.83;;
16025;SDS011;8117;52.488;13.460;2022-08-21T06:26:32;1.43;;;0.70;;
16025;SDS011;8117;52.488;13.460;2022-08-21T06:28:59;0.60;;;0.60;;
16025;SDS011;8117;52.488;13.460;2022-08-21T06:31:27;1.37;;;1.20;;
16025;SDS011;8117;52.488;13.460;2022-08-21T06:33:54;3.23;;;1.53;;
16025;SDS011;8117;52.488;13.460;2022-08-21T06:36:22;0.63;;;0.60;;
16025;SDS011;8117;52.488;13.460;2022-08-21T06:38:48;3.83;;;1.33;;
16025;SDS011;8117;52.488;13.460;2022-08-21T06:41:17;1.93;;;0.80;;
16025;SDS011;8117;52.488;13.460;2022-08-21T06:43:44;0.70;;;0.60;;
16025;SDS011;8117;52.488;13.460;2022-08-21T06:46:11;3.30;;;0.95;;
16025;SDS011;8117;52.488;13.460;2022-08-21T06:48:39;0.98;;;0.82;;
16025;SDS011;8117;52.488;13.460;2022-08-21T06:51:05;1.13;;;0.90;;
16025;SDS011;8117;52.488;13.460;2022-08-21T06:53:32;1.00;;;0.68;;
16025;SDS011;8117;52.488;13.460;2022-08-21T06:55:59;2.63;;;1.25;;
16025;SDS011;8117;52.488;13.460;2022-08-21T06:58:25;2.38;;;0.75;;
16025;SDS011;8117;52.488;13.460;2022-08-21T07:00:56;4.90;;;1.65;;
16025;SDS011;8117;52.488;13.460;2022-08-21T07:03:23;3.75;;;0.90;;
16025;SDS011;8117;52.488;13.460;2022-08-21T07:05:53;0.60;;;0.57;;
16025;SDS011;8117;52.488;13.460;2022-08-21T07:08:21;1.52;;;1.10;;
16025;SDS011;8117;52.488;13.460;2022-08-21T07:10:48;1.73;;;0.70;;
16025;SDS011;8117;52.488;13.460;2022-08-21T07:13:15;0.82;;;0.82;;
16025;SDS011;8117;52.488;13.460;2022-08-21T07:15:41;1.58;;;1.40;;
16025;SDS011;8117;52.488;13.460;2022-08-21T07:18:09;1.90;;;1.00;;
16025;SDS011;8117;52.488;13.460;2022-08-21T07:20:36;0.98;;;0.80;;
16025;SDS011;8117;52.488;13.460;2022-08-21T07:23:06;0.93;;;0.93;;
16025;SDS011;8117;52.488;13.460;2022-08-21T07:25:34;3.65;;;0.98;;
16025;SDS011;8117;52.488;13.460;2022-08-21T07:28:01;1.05;;;0.80;;
16025;SDS011;8117;52.488;13.460;2022-08-21T07:30:28;0.70;;;0.70;;
16025;SDS011;8117;52.488;13.460;2022-08-21T07:32:55;0.93;;;0.60;;
16025;SDS011;8117;52.488;13.460;2022-08-21T07:35:21;1.35;;;0.70;;
16025;SDS011;8117;52.488;13.460;2022-08-21T07:37:48;4.03;;;1.27;;
16025;SDS011;8117;52.488;13.460;2022-08-21T07:40:17;0.60;;;0.50;;
16025;SDS011;8117;52.488;13.460;2022-08-21T07:42:45;0.57;;;0.50;;
16025;SDS011;8117;52.488;13.460;2022-08-21T07:45:14;0.57;;;0.50;;
16025;SDS011;8117;52.488;13.460;2022-08-21T07:47:41;1.50;;;1.13;;
16025;SDS011;8117;52.488;13.460;2022-08-21T07:50:08;4.63;;;1.50;;
16025;SDS011;8117;52.488;13.460;2022-08-21T07:52:36;0.77;;;0.67;;
16025;SDS011;8117;52.488;13.460;2022-08-21T07:55:02;1.38;;;0.68;;
16025;SDS011;8117;52.488;13.460;2022-08-21T07:57:31;0.50;;;0.50;;
16025;SDS011;8117;52.488;13.460;2022-08-21T07:59:58;1.45;;;0.47;;
16025;SDS011;8117;52.488;13.460;2022-08-21T08:02:28;1.05;;;0.57;;
16025;SDS011;8117;52.488;13.460;2022-08-21T08:05:03;0.95;;;0.60;;
16025;SDS011;8117;52.488;13.460;2022-08-21T08:07:34;0.63;;;0.40;;
16025;SDS011;8117;52.488;13.460;2022-08-21T08:10:00;2.35;;;0.73;;
16025;SDS011;8117;52.488;13.460;2022-08-21T08:12:27;1.65;;;0.38;;
16025;SDS011;8117;52.488;13.460;2022-08-21T08:14:55;1.48;;;0.55;;
16025;SDS011;8117;52.488;13.460;2022-08-21T08:17:22;0.38;;;0.38;;
16025;SDS011;8117;52.488;13.460;2022-08-21T08:19:49;0.30;;;0.30;;
16025;SDS011;8117;52.488;13.460;2022-08-21T08:22:16;0.60;;;0.60;;
16025;SDS011;8117;52.488;13.460;2022-08-21T08:24:44;1.10;;;0.60;;
16025;SDS011;8117;52.488;13.460;2022-08-21T08:27:13;1.25;;;1.02;;
16025;SDS011;8117;52.488;13.460;2022-08-21T08:29:40;1.58;;;0.93;;
16025;SDS011;8117;52.488;13.460;2022-08-21T08:32:08;6.80;;;0.77;;
16025;SDS011;8117;52.488;13.460;2022-08-21T08:34:35;0.90;;;0.60;;
16025;SDS011;8117;52.488;13.460;2022-08-21T08:37:02;0.52;;;0.52;;
16025;SDS011;8117;52.488;13.460;2022-08-21T08:39:29;0.55;;;0.50;;
16025;SDS011;8117;52.488;13.460;2022-08-21T08:41:58;0.75;;;0.70;;
16025;SDS011;8117;52.488;13.460;2022-08-21T08:44:31;1.63;;;0.90;;
16025;SDS011;8117;52.488;13.460;2022-08-21T08:47:01;1.05;;;0.52;;
16025;SDS011;8117;52.488;13.460;2022-08-21T08:49:31;0.40;;;0.40;;
16025;SDS011;8117;52.488;13.460;2022-08-21T08:52:01;1.17;;;0.60;;
16025;SDS011;8117;52.488;13.460;2022-08-21T08:54:30;1.52;;;0.50;;
16025;SDS011;8117;52.488;13.460;2022-08-21T08:56:59;0.43;;;0.43;;
16025;SDS011;8117;52.488;13.460;2022-08-21T08:59:29;1.08;;;0.43;;
16025;SDS011;8117;52.488;13.460;2022-08-21T09:02:01;0.60;;;0.60;;
16025;SDS011;8117;52.488;13.460;2022-08-21T09:04:27;0.55;;;0.50;;
16025;SDS011;8117;52.488;13.460;2022-08-21T09:07:03;0.52;;;0.52;;
16025;SDS011;8117;52.488;13.460;2022-08-21T09:09:38;0.45;;;0.45;;
16025;SDS011;8117;52.488;13.460;2022-08-21T09:12:23;0.68;;;0.60;;
16025;SDS011;8117;52.488;13.460;2022-08-21T09:15:25;0.60;;;0.50;;
16025;SDS011;8117;52.488;13.460;2022-08-21T09:18:01;1.98;;;0.82;;
16025;SDS011;8117;52.488;13.460;2022-08-21T09:20:38;0.57;;;0.50;;
16025;SDS011;8117;52.488;13.460;2022-08-21T09:23:14;1.27;;;0.65;;
16025;SDS011;8117;52.488;13.460;2022-08-21T09:25:56;0.85;;;0.70;;
16025;SDS011;8117;52.488;13.460;2022-08-21T09:28:34;3.80;;;0.68;;
16025;SDS011;8117;52.488;13.460;2022-08-21T09:31:05;0.40;;;0.40;;
16025;SDS011;8117;52.488;13.460;2022-08-21T09:33:32;1.08;;;0.52;;
16025;SDS011;8117;52.488;13.460;2022-08-21T09:36:02;1.58;;;0.85;;
16025;SDS011;8117;52.488;13.460;2022-08-21T09:38:31;0.90;;;0.32;;
16025;SDS011;8117;52.488;13.460;2022-08-21T09:41:00;0.93;;;0.77;;
16025;SDS011;8117;52.488;13.460;2022-08-21T09:43:31;1.10;;;0.90;;
16025;SDS011;8117;52.488;13.460;2022-08-21T09:46:03;1.17;;;0.47;;
16025;SDS011;8117;52.488;13.460;2022-08-21T09:48:38;2.05;;;0.70;;
16025;SDS011;8117;52.488;13.460;2022-08-21T09:51:06;0.80;;;0.55;;
16025;SDS011;8117;52.488;13.460;2022-08-21T09:53:38;2.33;;;0.60;;
16025;SDS011;8117;52.488;13.460;2022-08-21T09:56:16;2.35;;;0.70;;
16025;SDS011;8117;52.488;13.460;2022-08-21T09:59:11;0.63;;;0.63;;
16025;SDS011;8117;52.488;13.460;2022-08-21T10:01:42;1.17;;;0.50;;
16025;SDS011;8117;52.488;13.460;2022-08-21T10:04:10;0.38;;;0.38;;
16025;SDS011;8117;52.488;13.460;2022-08-21T10:06:37;1.85;;;0.50;;
16025;SDS011;8117;52.488;13.460;2022-08-21T10:09:06;1.00;;;0.82;;
16025;SDS011;8117;52.488;13.460;2022-08-21T10:11:34;1.05;;;0.95;;
16025;SDS011;8117;52.488;13.460;2022-08-21T10:14:20;0.60;;;0.40;;
16025;SDS011;8117;52.488;13.460;2022-08-21T10:17:12;1.02;;;0.60;;
16025;SDS011;8117;52.488;13.460;2022-08-21T10:19:43;0.60;;;0.60;;
16025;SDS011;8117;52.488;13.460;2022-08-21T10:22:17;0.45;;;0.45;;
16025;SDS011;8117;52.488;13.460;2022-08-21T10:24:52;1.33;;;0.70;;
16025;SDS011;8117;52.488;13.460;2022-08-21T10:27:26;0.90;;;0.77;;
16025;SDS011;8117;52.488;13.460;2022-08-21T10:29:59;1.73;;;0.55;;
16025;SDS011;8117;52.488;13.460;2022-08-21T10:32:33;0.35;;;0.35;;
16025;SDS011;8117;52.488;13.460;2022-08-21T10:35:08;1.15;;;0.75;;
16025;SDS011;8117;52.488;13.460;2022-08-21T10:37:41;0.77;;;0.68;;
16025;SDS011;8117;52.488;13.460;2022-08-21T10:40:19;1.17;;;0.85;;
16025;SDS011;8117;52.488;13.460;2022-08-21T10:42:50;0.82;;;0.65;;
16025;SDS011;8117;52.488;13.460;2022-08-21T10:45:25;1.50;;;0.98;;
16025;SDS011;8117;52.488;13.460;2022-08-21T10:48:03;0.98;;;0.80;;
16025;SDS011;8117;52.488;13.460;2022-08-21T10:50:34;1.17;;;0.80;;
16025;SDS011;8117;52.488;13.460;2022-08-21T10:53:16;0.85;;;0.57;;
16025;SDS011;8117;52.488;13.460;2022-08-21T10:55:52;0.88;;;0.88;;
16025;SDS011;8117;52.488;13.460;2022-08-21T10:58:25;2.30;;;0.82;;
16025;SDS011;8117;52.488;13.460;2022-08-21T11:00:56;0.40;;;0.40;;
16025;SDS011;8117;52.488;13.460;2022-08-21T11:03:27;1.15;;;0.55;;
16025;SDS011;8117;52.488;13.460;2022-08-21T11:05:58;0.77;;;0.77;;
16025;SDS011;8117;52.488;13.460;2022-08-21T11:08:27;1.10;;;0.57;;
16025;SDS011;8117;52.488;13.460;2022-08-21T11:10:58;0.80;;;0.73;;
16025;SDS011;8117;52.488;13.460;2022-08-21T11:13:29;0.40;;;0.40;;
16025;SDS011;8117;52.488;13.460;2022-08-21T11:16:00;0.68;;;0.60;;
16025;SDS011;8117;52.488;13.460;2022-08-21T11:18:31;0.38;;;0.30;;
16025;SDS011;8117;52.488;13.460;2022-08-21T11:21:03;1.50;;;0.50;;
16025;SDS011;8117;52.488;13.460;2022-08-21T11:23:38;0.50;;;0.50;;
16025;SDS011;8117;52.488;13.460;2022-08-21T11:26:09;1.02;;;0.43;;
16025;SDS011;8117;52.488;13.460;2022-08-21T11:28:45;0.35;;;0.35;;
16025;SDS011;8117;52.488;13.460;2022-08-21T11:31:18;0.57;;;0.57;;
16025;SDS011;8117;52.488;13.460;2022-08-21T11:33:55;0.95;;;0.70;;
16025;SDS011;8117;52.488;13.460;2022-08-21T11:36:33;2.22;;;0.95;;
16025;SDS011;8117;52.488;13.460;2022-08-21T11:39:06;0.93;;;0.70;;
16025;SDS011;8117;52.488;13.460;2022-08-21T11:41:48;0.82;;;0.55;;
16025;SDS011;8117;52.488;13.460;2022-08-21T11:44:23;0.68;;;0.68;;
16025;SDS011;8117;52.488;13.460;2022-08-21T11:47:01;0.68;;;0.50;;
16025;SDS011;8117;52.488;13.460;2022-08-21T11:49:40;0.43;;;0.40;;
16025;SDS011;8117;52.488;13.460;2022-08-21T11:52:14;0.40;;;0.40;;
16025;SDS011;8117;52.488;13.460;2022-08-21T11:54:45;1.08;;;0.35;;
16025;SDS011;8117;52.488;13.460;2022-08-21T11:57:17;0.45;;;0.40;;
16025;SDS011;8117;52.488;13.460;2022-08-21T11:59:47;0.40;;;0.30;;
16025;SDS011;8117;52.488;13.460;2022-08-21T12:02:29;0.95;;;0.50;;
16025;SDS011;8117;52.488;13.460;2022-08-21T12:05:02;0.25;;;0.25;;
16025;SDS011;8117;52.488;13.460;2022-08-21T12:07:33;0.40;;;0.28;;
16025;SDS011;8117;52.488;13.460;2022-08-21T12:10:04;0.17;;;0.17;;
16025;SDS011;8117;52.488;13.460;2022-08-21T12:12:34;0.47;;;0.40;;
16025;SDS011;8117;52.488;13.460;2022-08-21T12:18:01;0.20;;;0.20;;
16025;SDS011;8117;52.488;13.460;2022-08-21T12:20:35;0.20;;;0.20;;
16025;SDS011;8117;52.488;13.460;2022-08-21T12:23:04;0.50;;;0.40;;
16025;SDS011;8117;52.488;13.460;2022-08-21T12:25:43;0.85;;;0.35;;
16025;SDS011;8117;52.488;13.460;2022-08-21T12:28:16;2.17;;;0.60;;
16025;SDS011;8117;52.488;13.460;2022-08-21T12:30:48;1.02;;;0.32;;
16025;SDS011;8117;52.488;13.460;2022-08-21T12:33:19;0.63;;;0.40;;
16025;SDS011;8117;52.488;13.460;2022-08-21T12:35:49;0.75;;;0.55;;
16025;SDS011;8117;52.488;13.460;2022-08-21T12:38:17;0.25;;;0.25;;
16025;SDS011;8117;52.488;13.460;2022-08-21T12:40:46;0.45;;;0.43;;
16025;SDS011;8117;52.488;13.460;2022-08-21T12:43:18;0.20;;;0.20;;
16025;SDS011;8117;52.488;13.460;2022-08-21T12:45:47;0.68;;;0.52;;
16025;SDS011;8117;52.488;13.460;2022-08-21T12:48:18;0.40;;;0.40;;
16025;SDS011;8117;52.488;13.460;2022-08-21T12:50:48;0.95;;;0.40;;
16025;SDS011;8117;52.488;13.460;2022-08-21T12:53:19;0.77;;;0.50;;
16025;SDS011;8117;52.488;13.460;2022-08-21T12:55:51;0.30;;;0.30;;
16025;SDS011;8117;52.488;13.460;2022-08-21T12:58:21;0.25;;;0.20;;
16025;SDS011;8117;52.488;13.460;2022-08-21T13:00:50;0.63;;;0.30;;
16025;SDS011;8117;52.488;13.460;2022-08-21T13:03:19;1.42;;;0.30;;
16025;SDS011;8117;52.488;13.460;2022-08-21T13:05:45;0.50;;;0.50;;
16025;SDS011;8117;52.488;13.460;2022-08-21T13:08:12;0.38;;;0.38;;
16025;SDS011;8117;52.488;13.460;2022-08-21T13:10:41;0.40;;;0.40;;
16025;SDS011;8117;52.488;13.460;2022-08-21T13:13:13;0.75;;;0.32;;
16025;SDS011;8117;52.488;13.460;2022-08-21T13:15:44;0.70;;;0.30;;
16025;SDS011;8117;52.488;13.460;2022-08-21T13:18:19;0.40;;;0.30;;
16025;SDS011;8117;52.488;13.460;2022-08-21T13:20:46;0.30;;;0.30;;
16025;SDS011;8117;52.488;13.460;2022-08-21T13:23:16;0.20;;;0.20;;
16025;SDS011;8117;52.488;13.460;2022-08-21T13:25:47;0.30;;;0.30;;
16025;SDS011;8117;52.488;13.460;2022-08-21T13:28:13;0.38;;;0.30;;
16025;SDS011;8117;52.488;13.460;2022-08-21T13:30:40;4.10;;;0.47;;
16025;SDS011;8117;52.488;13.460;2022-08-21T13:33:10;0.32;;;0.30;;
16025;SDS011;8117;52.488;13.460;2022-08-21T13:35:46;0.30;;;0.30;;
16025;SDS011;8117;52.488;13.460;2022-08-21T13:38:15;2.40;;;0.40;;
16025;SDS011;8117;52.488;13.460;2022-08-21T13:40:44;0.70;;;0.55;;
16025;SDS011;8117;52.488;13.460;2022-08-21T13:43:17;0.30;;;0.30;;
16025;SDS011;8117;52.488;13.460;2022-08-21T13:45:47;0.50;;;0.50;;
16025;SDS011;8117;52.488;13.460;2022-08-21T13:48:16;0.43;;;0.43;;
16025;SDS011;8117;52.488;13.460;2022-08-21T13:50:45;0.60;;;0.40;;
16025;SDS011;8117;52.488;13.460;2022-08-21T13:53:35;2.17;;;0.43;;
16025;SDS011;8117;52.488;13.460;2022-08-21T13:56:20;0.98;;;0.47;;
16025;SDS011;8117;52.488;13.460;2022-08-21T13:58:48;0.88;;;0.47;;
16025;SDS011;8117;52.488;13.460;2022-08-21T14:01:18;1.25;;;0.60;;
16025;SDS011;8117;52.488;13.460;2022-08-21T14:03:49;1.38;;;0.45;;
16025;SDS011;8117;52.488;13.460;2022-08-21T14:06:19;0.80;;;0.50;;
16025;SDS011;8117;52.488;13.460;2022-08-21T14:08:48;0.95;;;0.70;;
16025;SDS011;8117;52.488;13.460;2022-08-21T14:11:16;0.55;;;0.55;;
16025;SDS011;8117;52.488;13.460;2022-08-21T14:13:44;0.75;;;0.55;;
16025;SDS011;8117;52.488;13.460;2022-08-21T14:16:14;0.50;;;0.50;;
16025;SDS011;8117;52.488;13.460;2022-08-21T14:21:49;1.10;;;0.73;;
16025;SDS011;8117;52.488;13.460;2022-08-21T14:24:25;0.70;;;0.70;;
16025;SDS011;8117;52.488;13.460;2022-08-21T14:26:55;1.23;;;0.90;;
16025;SDS011;8117;52.488;13.460;2022-08-21T14:29:25;0.70;;;0.60;;
16025;SDS011;8117;52.488;13.460;2022-08-21T14:31:54;1.35;;;0.80;;
16025;SDS011;8117;52.488;13.460;2022-08-21T14:34:26;0.52;;;0.52;;
16025;SDS011;8117;52.488;13.460;2022-08-21T14:36:58;3.15;;;0.85;;
16025;SDS011;8117;52.488;13.460;2022-08-21T14:39:29;1.75;;;0.82;;
16025;SDS011;8117;52.488;13.460;2022-08-21T14:41:57;1.02;;;0.90;;
16025;SDS011;8117;52.488;13.460;2022-08-21T14:44:25;0.80;;;0.80;;
16025;SDS011;8117;52.488;13.460;2022-08-21T14:46:52;2.00;;;0.90;;
16025;SDS011;8117;52.488;13.460;2022-08-21T14:49:19;1.00;;;0.90;;
16025;SDS011;8117;52.488;13.460;2022-08-21T14:51:47;0.82;;;0.52;;
16025;SDS011;8117;52.488;13.460;2022-08-21T14:54:20;2.58;;;0.80;;
16025;SDS011;8117;52.488;13.460;2022-08-21T14:56:46;0.63;;;0.63;;
16025;SDS011;8117;52.488;13.460;2022-08-21T14:59:13;0.60;;;0.60;;
16025;SDS011;8117;52.488;13.460;2022-08-21T15:01:40;0.77;;;0.73;;
16025;SDS011;8117;52.488;13.460;2022-08-21T15:04:06;5.10;;;0.88;;
16025;SDS011;8117;52.488;13.460;2022-08-21T15:06:36;0.70;;;0.70;;